sensor_id;sensor_type;location;lat;lon;timestamp;pressure;altitude;pressure_sealevel;temperature;humidity
19624;BME280;9959;49.798;9.928;2024-01-15T00:00:34;98454.03;;;-2.93;89.12
19624;BME280;9959;49.798;9.928;2024-01-15T00:03:01;98452.03;;;-2.99;89.60
19624;BME280;9959;49.798;9.928;2024-01-15T00:05:28;98457.50;;;-2.93;90.03
19624;BME280;9959;49.798;9.928;2024-01-15T00:07:55;98456.06;;;-2.87;89.54
19624;BME280;9959;49.798;9.928;2024-01-15T00:10:23;98452.44;;;-2.86;89.63
19624;BME280;9959;49.798;9.928;2024-01-15T00:12:56;98458.75;;;-2.79;89.13
19624;BME280;9959;49.798;9.928;2024-01-15T00:15:23;98448.38;;;-2.73;89.77
19624;BME280;9959;49.798;9.928;2024-01-15T00:17:50;98445.72;;;-2.81;91.02
19624;BME280;9959;49.798;9.928;2024-01-15T00:20:20;98453.28;;;-2.86;91.60
19624;BME280;9959;49.798;9.928;2024-01-15T00:22:47;98445.59;;;-2.71;91.74
19624;BME280;9959;49.798;9.928;2024-01-15T00:25:14;98453.16;;;-2.76;91.17
19624;BME280;9959;49.798;9.928;2024-01-15T00:27:41;98440.56;;;-2.90;91.59
19624;BME280;9959;49.798;9.928;2024-01-15T00:30:09;98453.59;;;-2.89;91.77
19624;BME280;9959;49.798;9.928;2024-01-15T00:32:36;98452.69;;;-2.97;90.87
19624;BME280;9959;49.798;9.928;2024-01-15T00:35:04;98456.38;;;-2.90;90.42
19624;BME280;9959;49.798;9.928;2024-01-15T00:37:31;98449.13;;;-2.88;90.42
19624;BME280;9959;49.798;9.928;2024-01-15T00:39:58;98444.13;;;-2.99;90.82
19624;BME280;9959;49.798;9.928;2024-01-15T00:42:26;98448.09;;;-2.95;91.40
19624;BME280;9959;49.798;9.928;2024-01-15T00:44:56;98453.34;;;-3.03;91.49
19624;BME280;9959;49.798;9.928;2024-01-15T00:47:24;98438.22;;;-3.01;91.33
19624;BME280;9959;49.798;9.928;2024-01-15T00:49:51;98440.34;;;-2.97;91.13
19624;BME280;9959;49.798;9.928;2024-01-15T00:52:18;98437.38;;;-3.02;91.57
19624;BME280;9959;49.798;9.928;2024-01-15T00:54:45;98431.16;;;-2.93;90.99
19624;BME280;9959;49.798;9.928;2024-01-15T00:57:12;98428.66;;;-3.02;90.67
19624;BME280;9959;49.798;9.928;2024-01-15T00:59:39;98426.41;;;-2.89;91.68
19624;BME280;9959;49.798;9.928;2024-01-15T01:02:07;98426.66;;;-3.00;91.87
19624;BME280;9959;49.798;9.928;2024-01-15T01:04:37;98431.59;;;-3.05;93.82
19624;BME280;9959;49.798;9.928;2024-01-15T01:07:04;98425.66;;;-3.08;94.63
19624;BME280;9959;49.798;9.928;2024-01-15T01:09:31;98414.44;;;-3.10;94.87
19624;BME280;9959;49.798;9.928;2024-01-15T01:11:58;98411.19;;;-3.03;95.17
19624;BME280;9959;49.798;9.928;2024-01-15T01:14:25;98408.72;;;-2.97;94.71
19624;BME280;9959;49.798;9.928;2024-01-15T01:16:52;98417.31;;;-2.95;93.96
19624;BME280;9959;49.798;9.928;2024-01-15T01:19:19;98423.09;;;-2.91;93.72
19624;BME280;9959;49.798;9.928;2024-01-15T01:21:47;98414.53;;;-2.93;93.37
19624;BME280;9959;49.798;9.928;2024-01-15T01:24:14;98427.03;;;-2.95;93.28
19624;BME280;9959;49.798;9.928;2024-01-15T01:26:41;98415.13;;;-2.99;93.30
19624;BME280;9959;49.798;9.928;2024-01-15T01:29:09;98423.72;;;-2.97;94.57
19624;BME280;9959;49.798;9.928;2024-01-15T01:31:36;98424.66;;;-3.07;93.99
19624;BME280;9959;49.798;9.928;2024-01-15T01:34:03;98429.19;;;-2.91;94.53
19624;BME280;9959;49.798;9.928;2024-01-15T01:36:31;98424.75;;;-2.90;92.68
19624;BME280;9959;49.798;9.928;2024-01-15T01:38:58;98420.50;;;-2.83;92.48
19624;BME280;9959;49.798;9.928;2024-01-15T01:41:25;98415.19;;;-2.91;92.04
19624;BME280;9959;49.798;9.928;2024-01-15T01:43:52;98423.94;;;-2.91;92.36
19624;BME280;9959;49.798;9.928;2024-01-15T01:46:19;98418.13;;;-2.94;92.71
19624;BME280;9959;49.798;9.928;2024-01-15T01:48:46;98426.72;;;-2.92;92.41
19624;BME280;9959;49.798;9.928;2024-01-15T01:51:15;98430.63;;;-2.96;93.36
19624;BME280;9959;49.798;9.928;2024-01-15T01:53:44;98429.41;;;-2.84;93.08
19624;BME280;9959;49.798;9.928;2024-01-15T01:56:13;98428.41;;;-2.83;93.33
19624;BME280;9959;49.798;9.928;2024-01-15T01:58:41;98427.81;;;-2.69;92.27
19624;BME280;9959;49.798;9.928;2024-01-15T02:01:08;98424.13;;;-2.84;92.70
19624;BME280;9959;49.798;9.928;2024-01-15T02:03:35;98429.47;;;-2.68;91.59
19624;BME280;9959;49.798;9.928;2024-01-15T02:06:03;98431.75;;;-2.73;91.90
19624;BME280;9959;49.798;9.928;2024-01-15T02:08:30;98416.97;;;-2.66;92.19
19624;BME280;9959;49.798;9.928;2024-01-15T02:10:57;98420.56;;;-2.75;91.66
19624;BME280;9959;49.798;9.928;2024-01-15T02:13:25;98415.44;;;-2.77;91.88
19624;BME280;9959;49.798;9.928;2024-01-15T02:15:52;98415.00;;;-2.64;91.68
19624;BME280;9959;49.798;9.928;2024-01-15T02:18:22;98413.03;;;-2.62;92.03
19624;BME280;9959;49.798;9.928;2024-01-15T02:20:49;98414.69;;;-2.61;91.72
19624;BME280;9959;49.798;9.928;2024-01-15T02:23:16;98412.41;;;-2.56;91.90
19624;BME280;9959;49.798;9.928;2024-01-15T02:25:45;98399.38;;;-2.57;91.32
19624;BME280;9959;49.798;9.928;2024-01-15T02:28:15;98398.75;;;-2.51;92.54
19624;BME280;9959;49.798;9.928;2024-01-15T02:30:43;98403.19;;;-2.52;90.65
19624;BME280;9959;49.798;9.928;2024-01-15T02:33:11;98398.22;;;-2.55;92.56
19624;BME280;9959;49.798;9.928;2024-01-15T02:35:39;98398.59;;;-2.42;90.62
19624;BME280;9959;49.798;9.928;2024-01-15T02:38:07;98394.56;;;-2.62;91.66
19624;BME280;9959;49.798;9.928;2024-01-15T02:40:35;98397.91;;;-2.44;92.07
19624;BME280;9959;49.798;9.928;2024-01-15T02:43:02;98394.13;;;-2.49;92.06
19624;BME280;9959;49.798;9.928;2024-01-15T02:45:32;98396.25;;;-2.53;92.35
19624;BME280;9959;49.798;9.928;2024-01-15T02:48:05;98395.63;;;-2.39;91.53
19624;BME280;9959;49.798;9.928;2024-01-15T02:50:35;98395.13;;;-2.50;92.20
19624;BME280;9959;49.798;9.928;2024-01-15T02:53:05;98387.09;;;-2.32;91.51
19624;BME280;9959;49.798;9.928;2024-01-15T02:55:32;98387.22;;;-2.42;90.85
19624;BME280;9959;49.798;9.928;2024-01-15T02:57:59;98391.66;;;-2.43;91.44
19624;BME280;9959;49.798;9.928;2024-01-15T03:00:29;98389.03;;;-2.51;91.69
19624;BME280;9959;49.798;9.928;2024-01-15T03:02:59;98383.59;;;-2.49;92.57
19624;BME280;9959;49.798;9.928;2024-01-15T03:05:26;98390.00;;;-2.44;91.73
19624;BME280;9959;49.798;9.928;2024-01-15T03:07:56;98380.78;;;-2.40;90.81
19624;BME280;9959;49.798;9.928;2024-01-15T03:10:23;98397.00;;;-2.26;90.89
19624;BME280;9959;49.798;9.928;2024-01-15T03:12:50;98387.09;;;-2.32;90.18
19624;BME280;9959;49.798;9.928;2024-01-15T03:15:17;98392.00;;;-2.38;91.03
19624;BME280;9959;49.798;9.928;2024-01-15T03:17:45;98391.03;;;-2.36;90.50
19624;BME280;9959;49.798;9.928;2024-01-15T03:20:12;98408.16;;;-2.49;91.59
19624;BME280;9959;49.798;9.928;2024-01-15T03:22:39;98401.59;;;-2.28;90.88
19624;BME280;9959;49.798;9.928;2024-01-15T03:25:06;98391.22;;;-2.30;91.27
19624;BME280;9959;49.798;9.928;2024-01-15T03:27:36;98385.47;;;-2.25;89.47
19624;BME280;9959;49.798;9.928;2024-01-15T03:30:03;98382.50;;;-2.22;89.86
19624;BME280;9959;49.798;9.928;2024-01-15T03:32:31;98371.25;;;-2.32;89.22
19624;BME280;9959;49.798;9.928;2024-01-15T03:34:58;98376.06;;;-2.28;90.38
19624;BME280;9959;49.798;9.928;2024-01-15T03:37:25;98367.66;;;-2.23;89.81
19624;BME280;9959;49.798;9.928;2024-01-15T03:39:52;98364.69;;;-2.28;90.59
19624;BME280;9959;49.798;9.928;2024-01-15T03:42:22;98377.03;;;-2.29;89.79
19624;BME280;9959;49.798;9.928;2024-01-15T03:44:49;98361.19;;;-2.37;90.75
19624;BME280;9959;49.798;9.928;2024-01-15T03:47:17;98362.19;;;-2.38;90.10
19624;BME280;9959;49.798;9.928;2024-01-15T03:49:43;98367.94;;;-2.43;90.30
19624;BME280;9959;49.798;9.928;2024-01-15T03:52:11;98365.28;;;-2.43;91.60
19624;BME280;9959;49.798;9.928;2024-01-15T03:54:38;98367.97;;;-2.34;91.32
19624;BME280;9959;49.798;9.928;2024-01-15T03:57:05;98367.13;;;-2.35;90.81
19624;BME280;9959;49.798;9.928;2024-01-15T03:59:32;98370.41;;;-2.41;90.64
19624;BME280;9959;49.798;9.928;2024-01-15T04:01:59;98365.00;;;-2.31;91.26
19624;BME280;9959;49.798;9.928;2024-01-15T04:04:26;98368.66;;;-2.24;90.56
19624;BME280;9959;49.798;9.928;2024-01-15T04:06:53;98362.69;;;-2.18;90.24
19624;BME280;9959;49.798;9.928;2024-01-15T04:09:20;98364.34;;;-2.17;90.12
19624;BME280;9959;49.798;9.928;2024-01-15T04:11:47;98359.06;;;-2.17;90.55
19624;BME280;9959;49.798;9.928;2024-01-15T04:14:14;98363.72;;;-2.11;90.67
19624;BME280;9959;49.798;9.928;2024-01-15T04:16:44;98352.50;;;-2.05;89.73
19624;BME280;9959;49.798;9.928;2024-01-15T04:19:11;98360.06;;;-2.18;89.65
19624;BME280;9959;49.798;9.928;2024-01-15T04:21:38;98351.81;;;-2.15;90.64
19624;BME280;9959;49.798;9.928;2024-01-15T04:24:05;98356.47;;;-2.09;90.17
19624;BME280;9959;49.798;9.928;2024-01-15T04:26:33;98350.84;;;-2.06;89.80
19624;BME280;9959;49.798;9.928;2024-01-15T04:29:00;98354.47;;;-2.07;90.57
19624;BME280;9959;49.798;9.928;2024-01-15T04:31:27;98344.91;;;-2.08;91.79
19624;BME280;9959;49.798;9.928;2024-01-15T04:33:57;98342.59;;;-2.11;92.20
19624;BME280;9959;49.798;9.928;2024-01-15T04:36:24;98347.53;;;-2.24;93.28
19624;BME280;9959;49.798;9.928;2024-01-15T04:38:55;98346.84;;;-2.34;95.31
19624;BME280;9959;49.798;9.928;2024-01-15T04:41:21;98356.59;;;-2.35;97.71
19624;BME280;9959;49.798;9.928;2024-01-15T04:43:48;98342.53;;;-2.44;100.00
19624;BME280;9959;49.798;9.928;2024-01-15T04:46:15;98336.97;;;-2.32;100.00
19624;BME280;9959;49.798;9.928;2024-01-15T04:48:42;98332.03;;;-2.27;100.00
19624;BME280;9959;49.798;9.928;2024-01-15T04:51:09;98342.59;;;-2.27;100.00
19624;BME280;9959;49.798;9.928;2024-01-15T04:53:37;98337.31;;;-2.27;100.00
19624;BME280;9959;49.798;9.928;2024-01-15T04:56:05;98331.38;;;-2.29;100.00
19624;BME280;9959;49.798;9.928;2024-01-15T04:58:32;98326.91;;;-2.37;100.00
19624;BME280;9959;49.798;9.928;2024-01-15T05:00:59;98330.69;;;-2.48;100.00
19624;BME280;9959;49.798;9.928;2024-01-15T05:03:26;98319.16;;;-2.39;100.00
19624;BME280;9959;49.798;9.928;2024-01-15T05:05:56;98334.97;;;-2.55;100.00
19624;BME280;9959;49.798;9.928;2024-01-15T05:08:23;98331.81;;;-2.58;100.00
19624;BME280;9959;49.798;9.928;2024-01-15T05:10:50;98328.03;;;-2.56;100.00
19624;BME280;9959;49.798;9.928;2024-01-15T05:13:20;98331.66;;;-2.57;100.00
19624;BME280;9959;49.798;9.928;2024-01-15T05:15:47;98324.41;;;-2.55;100.00
19624;BME280;9959;49.798;9.928;2024-01-15T05:18:18;98334.31;;;-2.49;100.00
19624;BME280;9959;49.798;9.928;2024-01-15T05:20:45;98322.13;;;-2.50;100.00
19624;BME280;9959;49.798;9.928;2024-01-15T05:23:12;98320.13;;;-2.40;100.00
19624;BME280;9959;49.798;9.928;2024-01-15T05:25:39;98321.13;;;-2.41;99.66
19624;BME280;9959;49.798;9.928;2024-01-15T05:28:09;98315.72;;;-2.31;98.20
19624;BME280;9959;49.798;9.928;2024-01-15T05:30:36;98314.88;;;-2.40;97.93
19624;BME280;9959;49.798;9.928;2024-01-15T05:33:04;98312.25;;;-2.31;97.37
19624;BME280;9959;49.798;9.928;2024-01-15T05:35:31;98316.22;;;-2.27;98.29
19624;BME280;9959;49.798;9.928;2024-01-15T05:37:58;98311.25;;;-2.30;97.04
19624;BME280;9959;49.798;9.928;2024-01-15T05:40:25;98314.56;;;-2.28;97.18
19624;BME280;9959;49.798;9.928;2024-01-15T05:42:52;98320.50;;;-2.26;97.21
19624;BME280;9959;49.798;9.928;2024-01-15T05:45:22;98318.50;;;-2.32;96.84
19624;BME280;9959;49.798;9.928;2024-01-15T05:47:49;98316.53;;;-2.30;96.50
19624;BME280;9959;49.798;9.928;2024-01-15T05:50:16;98318.69;;;-2.26;96.47
19624;BME280;9959;49.798;9.928;2024-01-15T05:52:43;98316.03;;;-2.18;95.58
19624;BME280;9959;49.798;9.928;2024-01-15T05:55:10;98311.94;;;-2.20;95.78
19624;BME280;9959;49.798;9.928;2024-01-15T05:57:37;98322.81;;;-2.23;94.68
19624;BME280;9959;49.798;9.928;2024-01-15T06:00:07;98308.63;;;-2.14;94.79
19624;BME280;9959;49.798;9.928;2024-01-15T06:02:37;98307.13;;;-2.17;93.97
19624;BME280;9959;49.798;9.928;2024-01-15T06:05:07;98307.13;;;-2.17;93.87
19624;BME280;9959;49.798;9.928;2024-01-15T06:07:35;98299.06;;;-2.15;93.61
19624;BME280;9959;49.798;9.928;2024-01-15T06:10:03;98299.88;;;-2.15;93.89
19624;BME280;9959;49.798;9.928;2024-01-15T06:12:33;98305.34;;;-2.08;93.76
19624;BME280;9959;49.798;9.928;2024-01-15T06:15:00;98307.66;;;-2.21;93.91
19624;BME280;9959;49.798;9.928;2024-01-15T06:17:27;98305.66;;;-2.11;94.77
19624;BME280;9959;49.798;9.928;2024-01-15T06:19:55;98315.06;;;-2.09;93.91
19624;BME280;9959;49.798;9.928;2024-01-15T06:22:22;98312.91;;;-2.13;94.39
19624;BME280;9959;49.798;9.928;2024-01-15T06:24:49;98304.00;;;-2.12;94.51
19624;BME280;9959;49.798;9.928;2024-01-15T06:27:16;98312.94;;;-2.05;94.62
19624;BME280;9959;49.798;9.928;2024-01-15T06:29:54;98312.25;;;-2.07;94.92
19624;BME280;9959;49.798;9.928;2024-01-15T06:32:24;98310.63;;;-2.08;94.95
19624;BME280;9959;49.798;9.928;2024-01-15T06:34:57;98313.25;;;-2.00;95.20
19624;BME280;9959;49.798;9.928;2024-01-15T06:37:27;98311.44;;;-2.08;95.26
19624;BME280;9959;49.798;9.928;2024-01-15T06:40:00;98310.28;;;-2.13;96.18
19624;BME280;9959;49.798;9.928;2024-01-15T06:42:27;98322.81;;;-2.07;95.96
19624;BME280;9959;49.798;9.928;2024-01-15T06:44:54;98318.84;;;-2.11;96.35
19624;BME280;9959;49.798;9.928;2024-01-15T06:47:23;98325.13;;;-2.20;98.28
19624;BME280;9959;49.798;9.928;2024-01-15T06:49:52;98317.88;;;-2.10;98.57
19624;BME280;9959;49.798;9.928;2024-01-15T06:52:20;98316.22;;;-2.11;99.26
19624;BME280;9959;49.798;9.928;2024-01-15T06:54:50;98319.19;;;-2.14;98.96
19624;BME280;9959;49.798;9.928;2024-01-15T06:57:20;98312.25;;;-2.15;98.13
19624;BME280;9959;49.798;9.928;2024-01-15T06:59:48;98313.75;;;-2.13;99.39
19624;BME280;9959;49.798;9.928;2024-01-15T07:02:15;98316.88;;;-2.17;100.00
19624;BME280;9959;49.798;9.928;2024-01-15T07:04:42;98320.16;;;-2.15;100.00
19624;BME280;9959;49.798;9.928;2024-01-15T07:07:12;98321.31;;;-2.18;100.00
19624;BME280;9959;49.798;9.928;2024-01-15T07:09:42;98312.91;;;-2.13;100.00
19624;BME280;9959;49.798;9.928;2024-01-15T07:12:09;98327.09;;;-2.14;99.70
19624;BME280;9959;49.798;9.928;2024-01-15T07:14:36;98312.59;;;-2.10;98.17
19624;BME280;9959;49.798;9.928;2024-01-15T07:17:03;98318.69;;;-2.10;97.17
19624;BME280;9959;49.798;9.928;2024-01-15T07:19:30;98318.38;;;-2.07;96.43
19624;BME280;9959;49.798;9.928;2024-01-15T07:22:00;98315.88;;;-2.08;96.02
19624;BME280;9959;49.798;9.928;2024-01-15T07:24:27;98325.13;;;-2.04;95.55
19624;BME280;9959;49.798;9.928;2024-01-15T07:26:54;98322.16;;;-2.09;95.80
19624;BME280;9959;49.798;9.928;2024-01-15T07:29:24;98327.13;;;-1.98;95.98
19624;BME280;9959;49.798;9.928;2024-01-15T07:31:54;98331.09;;;-1.94;95.22
19624;BME280;9959;49.798;9.928;2024-01-15T07:34:21;98347.72;;;-2.01;95.25
19624;BME280;9959;49.798;9.928;2024-01-15T07:36:49;98324.47;;;-2.06;96.82
19624;BME280;9959;49.798;9.928;2024-01-15T07:39:22;98330.41;;;-1.96;97.62
19624;BME280;9959;49.798;9.928;2024-01-15T07:41:51;98341.94;;;-2.05;98.82
19624;BME280;9959;49.798;9.928;2024-01-15T07:44:18;98345.59;;;-2.06;99.89
19624;BME280;9959;49.798;9.928;2024-01-15T07:46:48;98346.22;;;-2.12;100.00
19624;BME280;9959;49.798;9.928;2024-01-15T07:49:18;98369.97;;;-2.20;100.00
19624;BME280;9959;49.798;9.928;2024-01-15T07:51:45;98334.69;;;-2.11;100.00
19624;BME280;9959;49.798;9.928;2024-01-15T07:54:15;98336.31;;;-2.18;100.00
19624;BME280;9959;49.798;9.928;2024-01-15T07:56:59;98339.81;;;-2.10;100.00
19624;BME280;9959;49.798;9.928;2024-01-15T07:59:29;98340.97;;;-2.04;100.00
19624;BME280;9959;49.798;9.928;2024-01-15T08:01:56;98334.38;;;-1.92;100.00
19624;BME280;9959;49.798;9.928;2024-01-15T08:04:23;98337.31;;;-1.87;100.00
19624;BME280;9959;49.798;9.928;2024-01-15T08:06:58;98342.28;;;-1.84;99.44
19624;BME280;9959;49.798;9.928;2024-01-15T08:09:25;98322.00;;;-1.75;98.98
19624;BME280;9959;49.798;9.928;2024-01-15T08:11:53;98325.63;;;-1.76;98.36
19624;BME280;9959;49.798;9.928;2024-01-15T08:14:20;98328.25;;;-1.68;97.73
19624;BME280;9959;49.798;9.928;2024-01-15T08:16:47;98316.84;;;-1.60;98.34
19624;BME280;9959;49.798;9.928;2024-01-15T08:19:13;98322.47;;;-1.55;97.95
19624;BME280;9959;49.798;9.928;2024-01-15T08:21:42;98324.78;;;-1.60;99.16
19624;BME280;9959;49.798;9.928;2024-01-15T08:24:09;98320.66;;;-1.63;98.66
19624;BME280;9959;49.798;9.928;2024-01-15T08:26:38;98319.16;;;-1.57;98.75
19624;BME280;9959;49.798;9.928;2024-01-15T08:29:05;98305.06;;;-1.33;97.38
19624;BME280;9959;49.798;9.928;2024-01-15T08:31:32;98309.91;;;-1.53;96.54
19624;BME280;9959;49.798;9.928;2024-01-15T08:33:59;98311.19;;;-1.33;95.11
19624;BME280;9959;49.798;9.928;2024-01-15T08:36:29;98306.72;;;-1.32;94.22
19624;BME280;9959;49.798;9.928;2024-01-15T08:39:00;98307.78;;;-1.03;92.51
19624;BME280;9959;49.798;9.928;2024-01-15T08:41:33;98307.44;;;-0.99;92.39
19624;BME280;9959;49.798;9.928;2024-01-15T08:44:00;98312.72;;;-0.91;90.02
19624;BME280;9959;49.798;9.928;2024-01-15T08:46:37;98313.41;;;-1.06;90.18
19624;BME280;9959;49.798;9.928;2024-01-15T08:49:16;98303.81;;;-0.98;90.89
19624;BME280;9959;49.798;9.928;2024-01-15T08:51:44;98303.75;;;-0.82;90.65
19624;BME280;9959;49.798;9.928;2024-01-15T08:54:11;98309.38;;;-0.85;89.91
19624;BME280;9959;49.798;9.928;2024-01-15T08:56:37;98309.38;;;-0.85;89.86
19624;BME280;9959;49.798;9.928;2024-01-15T08:59:05;98309.16;;;-0.76;88.84
19624;BME280;9959;49.798;9.928;2024-01-15T09:01:32;98309.06;;;-0.90;89.98
19624;BME280;9959;49.798;9.928;2024-01-15T09:03:59;98312.91;;;-1.09;91.15
19624;BME280;9959;49.798;9.928;2024-01-15T09:06:26;98326.25;;;-0.94;91.34
19624;BME280;9959;49.798;9.928;2024-01-15T09:08:56;98319.84;;;-1.00;91.52
19624;BME280;9959;49.798;9.928;2024-01-15T09:11:23;98318.31;;;-0.86;90.87
19624;BME280;9959;49.798;9.928;2024-01-15T09:13:54;98322.28;;;-0.90;91.26
19624;BME280;9959;49.798;9.928;2024-01-15T09:16:20;98328.25;;;-0.96;91.85
19624;BME280;9959;49.798;9.928;2024-01-15T09:18:48;98329.22;;;-0.89;92.22
19624;BME280;9959;49.798;9.928;2024-01-15T09:21:17;98326.72;;;-0.83;91.97
19624;BME280;9959;49.798;9.928;2024-01-15T09:23:48;98327.44;;;-0.58;90.48
19624;BME280;9959;49.798;9.928;2024-01-15T09:26:16;98331.41;;;-0.62;89.97
19624;BME280;9959;49.798;9.928;2024-01-15T09:28:43;98328.34;;;-0.51;89.21
19624;BME280;9959;49.798;9.928;2024-01-15T09:31:10;98332.97;;;-0.45;88.32
19624;BME280;9959;49.798;9.928;2024-01-15T09:33:39;98336.28;;;-0.51;88.35
19624;BME280;9959;49.798;9.928;2024-01-15T09:36:06;98322.63;;;-0.31;88.43
19624;BME280;9959;49.798;9.928;2024-01-15T09:38:40;98323.97;;;-0.36;87.53
19624;BME280;9959;49.798;9.928;2024-01-15T09:41:11;98320.16;;;-0.33;86.91
19624;BME280;9959;49.798;9.928;2024-01-15T09:43:38;98318.72;;;-0.44;87.65
19624;BME280;9959;49.798;9.928;2024-01-15T09:46:08;98329.00;;;-0.49;88.11
19624;BME280;9959;49.798;9.928;2024-01-15T09:48:35;98321.16;;;-0.65;88.62
19624;BME280;9959;49.798;9.928;2024-01-15T09:51:03;98322.47;;;-0.61;89.14
19624;BME280;9959;49.798;9.928;2024-01-15T09:53:33;98329.41;;;-0.60;88.95
19624;BME280;9959;49.798;9.928;2024-01-15T09:56:00;98313.88;;;-0.63;90.15
19624;BME280;9959;49.798;9.928;2024-01-15T09:58:28;98315.75;;;-0.41;88.59
19624;BME280;9959;49.798;9.928;2024-01-15T10:00:57;98311.06;;;-0.30;88.45
19624;BME280;9959;49.798;9.928;2024-01-15T10:03:33;98304.63;;;-0.13;87.71
19624;BME280;9959;49.798;9.928;2024-01-15T10:06:01;98305.28;;;-0.11;87.69
19624;BME280;9959;49.798;9.928;2024-01-15T10:08:32;98288.81;;;-0.21;87.22
19624;BME280;9959;49.798;9.928;2024-01-15T10:11:00;98291.81;;;-0.24;88.03
19624;BME280;9959;49.798;9.928;2024-01-15T10:13:28;98282.94;;;-0.31;88.00
19624;BME280;9959;49.798;9.928;2024-01-15T10:15:56;98283.41;;;-0.05;87.26
19624;BME280;9959;49.798;9.928;2024-01-15T10:18:25;98281.56;;;0.18;86.37
19624;BME280;9959;49.798;9.928;2024-01-15T10:20:56;98280.84;;;0.39;85.54
19624;BME280;9959;49.798;9.928;2024-01-15T10:23:28;98281.38;;;0.34;84.19
19624;BME280;9959;49.798;9.928;2024-01-15T10:25:57;98276.66;;;0.45;84.11
19624;BME280;9959;49.798;9.928;2024-01-15T10:28:29;98284.69;;;0.37;83.59
19624;BME280;9959;49.798;9.928;2024-01-15T10:31:01;98275.03;;;0.73;82.84
19624;BME280;9959;49.798;9.928;2024-01-15T10:33:28;98266.72;;;0.61;82.38
19624;BME280;9959;49.798;9.928;2024-01-15T10:35:57;98262.78;;;0.72;82.56
19624;BME280;9959;49.798;9.928;2024-01-15T10:38:25;98263.72;;;1.30;80.35
19624;BME280;9959;49.798;9.928;2024-01-15T10:40:54;98261.50;;;0.97;80.39
19624;BME280;9959;49.798;9.928;2024-01-15T10:43:24;98250.72;;;0.70;80.89
19624;BME280;9959;49.798;9.928;2024-01-15T10:45:54;98239.84;;;0.50;82.67
19624;BME280;9959;49.798;9.928;2024-01-15T10:48:23;98246.06;;;0.72;83.52
19624;BME280;9959;49.798;9.928;2024-01-15T10:50:50;98250.66;;;1.14;82.78
19624;BME280;9959;49.798;9.928;2024-01-15T10:53:17;98240.63;;;1.66;80.50
19624;BME280;9959;49.798;9.928;2024-01-15T10:55:46;98237.13;;;2.36;78.16
19624;BME280;9959;49.798;9.928;2024-01-15T10:58:16;98243.34;;;2.22;76.90
19624;BME280;9959;49.798;9.928;2024-01-15T11:00:44;98233.00;;;2.34;76.71
19624;BME280;9959;49.798;9.928;2024-01-15T11:03:12;98230.34;;;2.06;77.05
19624;BME280;9959;49.798;9.928;2024-01-15T11:05:42;98226.25;;;3.00;75.74
19624;BME280;9959;49.798;9.928;2024-01-15T11:08:10;98222.34;;;4.23;70.19
19624;BME280;9959;49.798;9.928;2024-01-15T11:10:42;98227.38;;;3.39;70.38
19624;BME280;9959;49.798;9.928;2024-01-15T11:13:20;98220.28;;;3.72;69.43
19624;BME280;9959;49.798;9.928;2024-01-15T11:16:05;98216.41;;;4.01;68.45
19624;BME280;9959;49.798;9.928;2024-01-15T11:18:43;98223.91;;;3.45;69.95
19624;BME280;9959;49.798;9.928;2024-01-15T11:21:23;98220.84;;;3.48;70.29
19624;BME280;9959;49.798;9.928;2024-01-15T11:23:58;98215.97;;;4.11;68.10
19624;BME280;9959;49.798;9.928;2024-01-15T11:26:44;98200.75;;;4.58;65.81
19624;BME280;9959;49.798;9.928;2024-01-15T11:37:20;98208.16;;;1.92;74.22
19624;BME280;9959;49.798;9.928;2024-01-15T11:39:51;98214.31;;;1.93;75.26
19624;BME280;9959;49.798;9.928;2024-01-15T11:42:19;98209.91;;;1.57;76.01
19624;BME280;9959;49.798;9.928;2024-01-15T11:44:48;98207.72;;;1.04;77.99
19624;BME280;9959;49.798;9.928;2024-01-15T11:47:15;98214.47;;;1.06;78.72
19624;BME280;9959;49.798;9.928;2024-01-15T11:50:00;98209.00;;;1.08;78.81
19624;BME280;9959;49.798;9.928;2024-01-15T11:52:35;98195.09;;;1.06;79.05
19624;BME280;9959;49.798;9.928;2024-01-15T11:55:15;98193.97;;;1.15;78.81
19624;BME280;9959;49.798;9.928;2024-01-15T11:57:55;98197.03;;;1.33;78.56
19624;BME280;9959;49.798;9.928;2024-01-15T12:00:24;98209.78;;;1.44;78.25
19624;BME280;9959;49.798;9.928;2024-01-15T12:02:51;98204.09;;;1.26;78.25
19624;BME280;9959;49.798;9.928;2024-01-15T12:05:19;98206.28;;;1.22;78.52
19624;BME280;9959;49.798;9.928;2024-01-15T12:07:48;98212.75;;;0.98;78.76
19624;BME280;9959;49.798;9.928;2024-01-15T12:10:18;98222.34;;;0.99;79.70
19624;BME280;9959;49.798;9.928;2024-01-15T12:15:26;98208.22;;;0.63;81.02
19624;BME280;9959;49.798;9.928;2024-01-15T12:17:58;98207.06;;;0.51;82.02
19624;BME280;9959;49.798;9.928;2024-01-15T12:20:30;98216.06;;;0.56;82.77
19624;BME280;9959;49.798;9.928;2024-01-15T12:22:58;98215.16;;;0.34;82.80
19624;BME280;9959;49.798;9.928;2024-01-15T12:25:33;98200.47;;;0.32;83.95
19624;BME280;9959;49.798;9.928;2024-01-15T12:28:01;98198.56;;;0.26;84.79
19624;BME280;9959;49.798;9.928;2024-01-15T12:30:30;98193.16;;;0.19;85.44
19624;BME280;9959;49.798;9.928;2024-01-15T12:33:04;98197.16;;;0.15;85.92
19624;BME280;9959;49.798;9.928;2024-01-15T12:35:33;98200.75;;;0.37;84.80
19624;BME280;9959;49.798;9.928;2024-01-15T12:38:01;98191.78;;;0.67;84.43
19624;BME280;9959;49.798;9.928;2024-01-15T12:40:34;98197.69;;;0.84;83.65
19624;BME280;9959;49.798;9.928;2024-01-15T12:43:05;98191.88;;;0.74;82.52
19624;BME280;9959;49.798;9.928;2024-01-15T12:45:34;98193.97;;;1.15;81.82
19624;BME280;9959;49.798;9.928;2024-01-15T12:48:03;98188.16;;;1.05;80.95
19624;BME280;9959;49.798;9.928;2024-01-15T12:50:33;98186.75;;;1.73;79.00
19624;BME280;9959;49.798;9.928;2024-01-15T12:53:04;98175.69;;;3.00;73.89
19624;BME280;9959;49.798;9.928;2024-01-15T12:55:31;98168.09;;;2.97;72.83
19624;BME280;9959;49.798;9.928;2024-01-15T12:58:06;98159.19;;;2.64;73.40
19624;BME280;9959;49.798;9.928;2024-01-15T13:00:33;98162.78;;;2.50;73.56
19624;BME280;9959;49.798;9.928;2024-01-15T13:03:01;98168.31;;;2.14;73.79
19624;BME280;9959;49.798;9.928;2024-01-15T13:05:32;98163.72;;;2.01;75.37
19624;BME280;9959;49.798;9.928;2024-01-15T13:08:01;98157.38;;;1.74;76.00
19624;BME280;9959;49.798;9.928;2024-01-15T13:10:28;98159.88;;;1.54;76.56
19624;BME280;9959;49.798;9.928;2024-01-15T13:13:02;98159.94;;;1.40;78.31
19624;BME280;9959;49.798;9.928;2024-01-15T13:15:34;98145.97;;;1.10;78.61
19624;BME280;9959;49.798;9.928;2024-01-15T13:18:02;98142.84;;;0.85;79.26
19624;BME280;9959;49.798;9.928;2024-01-15T13:20:37;98145.81;;;0.75;80.23
19624;BME280;9959;49.798;9.928;2024-01-15T13:23:04;98156.59;;;0.74;81.18
19624;BME280;9959;49.798;9.928;2024-01-15T13:25:31;98148.56;;;0.67;81.85
19624;BME280;9959;49.798;9.928;2024-01-15T13:28:00;98147.19;;;0.71;81.66
19624;BME280;9959;49.798;9.928;2024-01-15T13:30:27;98150.28;;;0.60;82.53